Utleyville, Colorado
Current Conditions -  °F | °C
As of 10:53 AM on Wednesday 28 Jan 2015 (Local Time) from KLAA Reporting Station
Clear Clear  
Wind Chill: 60°   Ceiling: Unl
Heat Index: 60°   Visibility: 10mi
Dew Point: 27°   Wind: 6mph
Humidity: 28%   Direction: 280°W
Pressure: 30"   Gusts: NA
Location:  37.3546°N, 102.952°W
Report Text: KLAA 281753Z AUTO 28005KT 10SM CLR 16/M03 A3000 RMK AO2 SLP149 T01561028 10156 20033 50000
Loading
Personal Weather Stations






























Interactive Weather Map New forecast layout! Learn more

10-Day Weather Forecast

Advertisements
Track Severe Weather on mobile